sensor_id;sensor_type;location;lat;lon;timestamp;pressure;altitude;pressure_sealevel;temperature;humidity
39157;BME280;24889;42.424;25.604;2022-08-19T00:01:48;97730.22;;;25.78;67.69
39157;BME280;24889;42.424;25.604;2022-08-19T00:04:15;97730.19;;;25.69;68.58
39157;BME280;24889;42.424;25.604;2022-08-19T00:06:41;97736.63;;;25.65;69.70
39157;BME280;24889;42.424;25.604;2022-08-19T00:09:09;97710.66;;;25.54;69.22
39157;BME280;24889;42.424;25.604;2022-08-19T00:11:35;97718.72;;;25.67;68.75
39157;BME280;24889;42.424;25.604;2022-08-19T00:14:02;97726.28;;;25.53;70.03
39157;BME280;24889;42.424;25.604;2022-08-19T00:16:28;97725.44;;;25.44;70.75
39157;BME280;24889;42.424;25.604;2022-08-19T00:18:54;97719.81;;;25.49;69.91
39157;BME280;24889;42.424;25.604;2022-08-19T00:21:20;97711.75;;;25.44;70.64
39157;BME280;24889;42.424;25.604;2022-08-19T00:23:46;97716.78;;;25.51;70.56
39157;BME280;24889;42.424;25.604;2022-08-19T00:26:11;97717.25;;;25.53;70.04
39157;BME280;24889;42.424;25.604;2022-08-19T00:28:36;97710.16;;;25.52;70.16
39157;BME280;24889;42.424;25.604;2022-08-19T00:31:05;97704.22;;;25.58;69.88
39157;BME280;24889;42.424;25.604;2022-08-19T00:33:31;97711.28;;;25.51;70.47
39157;BME280;24889;42.424;25.604;2022-08-19T00:36:00;97706.28;;;25.44;70.18
39157;BME280;24889;42.424;25.604;2022-08-19T00:38:26;97703.88;;;25.51;69.77
39157;BME280;24889;42.424;25.604;2022-08-19T00:40:51;97710.59;;;25.36;70.69
39157;BME280;24889;42.424;25.604;2022-08-19T00:43:20;97704.59;;;25.26;71.18
39157;BME280;24889;42.424;25.604;2022-08-19T00:45:46;97706.38;;;25.30;71.16
39157;BME280;24889;42.424;25.604;2022-08-19T00:48:13;97708.66;;;25.28;71.30
39157;BME280;24889;42.424;25.604;2022-08-19T00:50:39;97703.00;;;25.24;72.42
39157;BME280;24889;42.424;25.604;2022-08-19T00:53:05;97710.25;;;25.29;71.20
39157;BME280;24889;42.424;25.604;2022-08-19T00:55:31;97705.06;;;25.19;72.16
39157;BME280;24889;42.424;25.604;2022-08-19T00:58:02;97707.34;;;25.26;71.93
39157;BME280;24889;42.424;25.604;2022-08-19T01:00:29;97709.47;;;25.37;70.29
39157;BME280;24889;42.424;25.604;2022-08-19T01:02:55;97713.97;;;25.33;71.06
39157;BME280;24889;42.424;25.604;2022-08-19T01:05:21;97709.56;;;25.15;72.04
39157;BME280;24889;42.424;25.604;2022-08-19T01:07:47;97716.78;;;25.11;72.98
39157;BME280;24889;42.424;25.604;2022-08-19T01:10:20;97719.88;;;25.18;72.76
39157;BME280;24889;42.424;25.604;2022-08-19T01:12:47;97720.06;;;25.21;72.84
39157;BME280;24889;42.424;25.604;2022-08-19T01:15:14;97719.88;;;25.18;72.58
39157;BME280;24889;42.424;25.604;2022-08-19T01:17:41;97709.72;;;25.18;72.38
39157;BME280;24889;42.424;25.604;2022-08-19T01:20:12;97720.38;;;25.20;71.95
39157;BME280;24889;42.424;25.604;2022-08-19T01:22:51;97712.00;;;25.16;72.73
39157;BME280;24889;42.424;25.604;2022-08-19T01:25:18;97714.63;;;25.08;73.29
39157;BME280;24889;42.424;25.604;2022-08-19T01:27:45;97715.47;;;25.08;73.32
39157;BME280;24889;42.424;25.604;2022-08-19T01:30:14;97713.19;;;25.02;73.09
39157;BME280;24889;42.424;25.604;2022-08-19T01:32:40;97717.97;;;24.96;73.51
39157;BME280;24889;42.424;25.604;2022-08-19T01:35:06;97720.41;;;24.97;73.43
39157;BME280;24889;42.424;25.604;2022-08-19T01:37:41;97712.75;;;25.08;73.58
39157;BME280;24889;42.424;25.604;2022-08-19T01:40:06;97709.81;;;25.05;73.83
39157;BME280;24889;42.424;25.604;2022-08-19T01:42:33;97716.38;;;24.95;74.44
39157;BME280;24889;42.424;25.604;2022-08-19T01:45:00;97712.31;;;24.92;74.41
39157;BME280;24889;42.424;25.604;2022-08-19T01:47:25;97716.19;;;24.91;74.27
39157;BME280;24889;42.424;25.604;2022-08-19T01:49:50;97716.09;;;25.05;74.07
39157;BME280;24889;42.424;25.604;2022-08-19T01:52:16;97711.44;;;25.06;73.19
39157;BME280;24889;42.424;25.604;2022-08-19T01:54:41;97718.31;;;24.94;74.31
39157;BME280;24889;42.424;25.604;2022-08-19T01:57:08;97716.00;;;24.88;75.03
39157;BME280;24889;42.424;25.604;2022-08-19T01:59:35;97710.13;;;24.72;76.27
39157;BME280;24889;42.424;25.604;2022-08-19T02:02:04;97713.00;;;24.67;77.11
39157;BME280;24889;42.424;25.604;2022-08-19T02:04:32;97721.88;;;24.72;76.47
39157;BME280;24889;42.424;25.604;2022-08-19T02:06:57;97713.84;;;24.76;76.51
39157;BME280;24889;42.424;25.604;2022-08-19T02:09:23;97714.97;;;24.75;76.94
39157;BME280;24889;42.424;25.604;2022-08-19T02:11:48;97720.94;;;24.77;76.73
39157;BME280;24889;42.424;25.604;2022-08-19T02:14:13;97710.97;;;24.81;75.71
39157;BME280;24889;42.424;25.604;2022-08-19T02:16:38;97718.09;;;24.82;76.41
39157;BME280;24889;42.424;25.604;2022-08-19T02:19:05;97718.09;;;24.82;76.36
39157;BME280;24889;42.424;25.604;2022-08-19T02:21:31;97714.25;;;24.92;75.46
39157;BME280;24889;42.424;25.604;2022-08-19T02:23:56;97721.28;;;24.84;76.13
39157;BME280;24889;42.424;25.604;2022-08-19T02:26:22;97721.19;;;24.89;75.11
39157;BME280;24889;42.424;25.604;2022-08-19T02:28:48;97723.09;;;24.89;75.84
39157;BME280;24889;42.424;25.604;2022-08-19T02:31:16;97727.91;;;24.83;76.80
39157;BME280;24889;42.424;25.604;2022-08-19T02:33:42;97726.78;;;24.84;76.09
39157;BME280;24889;42.424;25.604;2022-08-19T02:36:08;97733.22;;;24.88;76.49
39157;BME280;24889;42.424;25.604;2022-08-19T02:38:34;97733.59;;;24.95;75.90
39157;BME280;24889;42.424;25.604;2022-08-19T02:41:04;97717.78;;;24.92;74.77
39157;BME280;24889;42.424;25.604;2022-08-19T02:43:30;97725.16;;;24.83;75.92
39157;BME280;24889;42.424;25.604;2022-08-19T02:45:56;97725.31;;;24.78;76.23
39157;BME280;24889;42.424;25.604;2022-08-19T02:48:22;97723.81;;;24.72;76.58
39157;BME280;24889;42.424;25.604;2022-08-19T02:50:49;97731.50;;;24.70;76.81
39157;BME280;24889;42.424;25.604;2022-08-19T02:53:19;97736.63;;;24.63;77.19
39157;BME280;24889;42.424;25.604;2022-08-19T02:55:47;97732.41;;;24.57;77.38
39157;BME280;24889;42.424;25.604;2022-08-19T02:58:13;97741.13;;;24.59;77.06
39157;BME280;24889;42.424;25.604;2022-08-19T03:00:43;97739.84;;;24.65;77.28
39157;BME280;24889;42.424;25.604;2022-08-19T03:03:08;97743.19;;;24.62;77.32
39157;BME280;24889;42.424;25.604;2022-08-19T03:05:34;97743.91;;;24.67;77.13
39157;BME280;24889;42.424;25.604;2022-08-19T03:07:59;97741.72;;;24.78;75.96
39157;BME280;24889;42.424;25.604;2022-08-19T03:10:24;97743.69;;;24.86;75.42
39157;BME280;24889;42.424;25.604;2022-08-19T03:12:50;97743.81;;;24.81;75.59
39157;BME280;24889;42.424;25.604;2022-08-19T03:15:15;97743.19;;;24.84;75.30
39157;BME280;24889;42.424;25.604;2022-08-19T03:17:40;97746.44;;;24.86;74.71
39157;BME280;24889;42.424;25.604;2022-08-19T03:20:06;97742.88;;;24.86;74.06
39157;BME280;24889;42.424;25.604;2022-08-19T03:22:31;97746.88;;;24.80;75.37
39157;BME280;24889;42.424;25.604;2022-08-19T03:24:57;97747.66;;;24.80;74.99
39157;BME280;24889;42.424;25.604;2022-08-19T03:27:24;97755.69;;;24.76;75.09
39157;BME280;24889;42.424;25.604;2022-08-19T03:29:49;97758.88;;;24.70;75.85
39157;BME280;24889;42.424;25.604;2022-08-19T03:32:16;97766.97;;;24.75;75.83
39157;BME280;24889;42.424;25.604;2022-08-19T03:34:41;97764.34;;;24.70;75.32
39157;BME280;24889;42.424;25.604;2022-08-19T03:37:08;97754.94;;;24.62;75.47
39157;BME280;24889;42.424;25.604;2022-08-19T03:39:35;97769.69;;;24.75;75.46
39157;BME280;24889;42.424;25.604;2022-08-19T03:42:01;97773.09;;;24.81;75.21
39157;BME280;24889;42.424;25.604;2022-08-19T03:44:27;97773.78;;;24.86;74.60
39157;BME280;24889;42.424;25.604;2022-08-19T03:46:55;97778.19;;;24.73;75.28
39157;BME280;24889;42.424;25.604;2022-08-19T03:49:20;97774.28;;;24.66;75.52
39157;BME280;24889;42.424;25.604;2022-08-19T03:51:47;97770.94;;;24.69;75.67
39157;BME280;24889;42.424;25.604;2022-08-19T03:54:13;97773.38;;;24.70;75.44
39157;BME280;24889;42.424;25.604;2022-08-19T03:56:40;97771.69;;;24.83;74.87
39157;BME280;24889;42.424;25.604;2022-08-19T03:59:06;97773.47;;;24.88;74.91
39157;BME280;24889;42.424;25.604;2022-08-19T04:01:32;97768.06;;;24.96;73.76
39157;BME280;24889;42.424;25.604;2022-08-19T04:03:58;97767.53;;;25.17;72.58
39157;BME280;24889;42.424;25.604;2022-08-19T04:06:27;97770.50;;;25.29;71.71
39157;BME280;24889;42.424;25.604;2022-08-19T04:08:54;97778.09;;;25.32;71.44
39157;BME280;24889;42.424;25.604;2022-08-19T04:11:21;97778.72;;;25.29;72.02
39157;BME280;24889;42.424;25.604;2022-08-19T04:13:47;97781.38;;;25.52;69.80
39157;BME280;24889;42.424;25.604;2022-08-19T04:16:13;97784.66;;;25.62;69.20
39157;BME280;24889;42.424;25.604;2022-08-19T04:18:39;97787.16;;;25.81;68.89
39157;BME280;24889;42.424;25.604;2022-08-19T04:21:05;97780.91;;;26.07;67.50
39157;BME280;24889;42.424;25.604;2022-08-19T04:23:31;97784.13;;;26.17;66.75
39157;BME280;24889;42.424;25.604;2022-08-19T04:25:56;97785.28;;;26.42;65.80
39157;BME280;24889;42.424;25.604;2022-08-19T04:28:22;97791.59;;;26.52;66.10
39157;BME280;24889;42.424;25.604;2022-08-19T04:30:48;97786.91;;;26.61;65.26
39157;BME280;24889;42.424;25.604;2022-08-19T04:33:15;97784.94;;;26.87;63.05
39157;BME280;24889;42.424;25.604;2022-08-19T04:35:43;97785.38;;;27.15;61.98
39157;BME280;24889;42.424;25.604;2022-08-19T04:38:09;97786.09;;;27.42;60.91
39157;BME280;24889;42.424;25.604;2022-08-19T04:40:39;97785.66;;;27.78;59.50
39157;BME280;24889;42.424;25.604;2022-08-19T04:43:24;97799.38;;;28.08;58.47
39157;BME280;24889;42.424;25.604;2022-08-19T04:45:49;97791.94;;;28.29;57.71
39157;BME280;24889;42.424;25.604;2022-08-19T04:48:16;97791.13;;;28.38;57.60
39157;BME280;24889;42.424;25.604;2022-08-19T04:50:44;97792.56;;;28.56;57.17
39157;BME280;24889;42.424;25.604;2022-08-19T04:53:09;97789.44;;;28.78;55.98
39157;BME280;24889;42.424;25.604;2022-08-19T04:55:38;97787.31;;;28.63;55.83
39157;BME280;24889;42.424;25.604;2022-08-19T04:58:03;97798.69;;;28.41;58.08
39157;BME280;24889;42.424;25.604;2022-08-19T05:00:29;97800.03;;;28.05;60.03
39157;BME280;24889;42.424;25.604;2022-08-19T05:02:54;97789.84;;;27.37;64.04
39157;BME280;24889;42.424;25.604;2022-08-19T05:05:19;97802.34;;;27.09;66.11
39157;BME280;24889;42.424;25.604;2022-08-19T05:07:45;97795.03;;;27.30;64.41
39157;BME280;24889;42.424;25.604;2022-08-19T05:10:11;97802.31;;;27.26;64.55
39157;BME280;24889;42.424;25.604;2022-08-19T05:12:37;97800.47;;;26.83;67.51
39157;BME280;24889;42.424;25.604;2022-08-19T05:15:03;97805.47;;;26.90;66.17
39157;BME280;24889;42.424;25.604;2022-08-19T05:17:29;97800.59;;;26.96;66.00
39157;BME280;24889;42.424;25.604;2022-08-19T05:19:54;97799.66;;;26.83;63.61
39157;BME280;24889;42.424;25.604;2022-08-19T05:22:38;97805.19;;;27.38;59.98
39157;BME280;24889;42.424;25.604;2022-08-19T05:25:06;97793.41;;;27.76;58.39
39157;BME280;24889;42.424;25.604;2022-08-19T05:27:32;97801.00;;;28.09;56.77
39157;BME280;24889;42.424;25.604;2022-08-19T05:29:57;97802.63;;;28.73;54.75
39157;BME280;24889;42.424;25.604;2022-08-19T05:32:23;97806.81;;;29.24;52.63
39157;BME280;24889;42.424;25.604;2022-08-19T05:34:48;97810.22;;;30.03;49.53
39157;BME280;24889;42.424;25.604;2022-08-19T05:37:14;97805.25;;;30.46;48.51
39157;BME280;24889;42.424;25.604;2022-08-19T05:39:39;97801.06;;;30.92;47.46
39157;BME280;24889;42.424;25.604;2022-08-19T05:42:06;97803.41;;;31.50;46.05
39157;BME280;24889;42.424;25.604;2022-08-19T05:44:33;97802.44;;;31.90;44.68
39157;BME280;24889;42.424;25.604;2022-08-19T05:47:00;97806.13;;;32.13;43.04
39157;BME280;24889;42.424;25.604;2022-08-19T05:49:26;97810.00;;;32.44;42.41
39157;BME280;24889;42.424;25.604;2022-08-19T05:51:52;97810.88;;;32.67;41.96
39157;BME280;24889;42.424;25.604;2022-08-19T05:54:18;97812.63;;;32.76;41.05
39157;BME280;24889;42.424;25.604;2022-08-19T05:56:44;97810.81;;;32.29;42.29
39157;BME280;24889;42.424;25.604;2022-08-19T05:59:12;97806.59;;;32.35;42.18
39157;BME280;24889;42.424;25.604;2022-08-19T06:01:42;97821.06;;;32.63;42.10
39157;BME280;24889;42.424;25.604;2022-08-19T06:04:08;97820.84;;;32.91;42.78
39157;BME280;24889;42.424;25.604;2022-08-19T06:06:34;97815.22;;;33.27;40.63
39157;BME280;24889;42.424;25.604;2022-08-19T06:09:03;97817.66;;;33.09;41.50
39157;BME280;24889;42.424;25.604;2022-08-19T06:11:33;97828.31;;;33.49;41.20
39157;BME280;24889;42.424;25.604;2022-08-19T06:14:00;97823.03;;;33.21;41.18
39157;BME280;24889;42.424;25.604;2022-08-19T06:16:26;97822.03;;;32.52;42.93
39157;BME280;24889;42.424;25.604;2022-08-19T06:18:52;97819.63;;;31.99;43.97
39157;BME280;24889;42.424;25.604;2022-08-19T06:21:19;97824.56;;;31.14;45.99
39157;BME280;24889;42.424;25.604;2022-08-19T06:23:45;97819.94;;;31.18;46.87
39157;BME280;24889;42.424;25.604;2022-08-19T06:26:12;97815.97;;;30.75;47.08
39157;BME280;24889;42.424;25.604;2022-08-19T06:28:38;97820.00;;;30.01;50.24
39157;BME280;24889;42.424;25.604;2022-08-19T06:31:07;97820.25;;;29.84;51.32
39157;BME280;24889;42.424;25.604;2022-08-19T06:33:33;97821.03;;;29.14;53.54
39157;BME280;24889;42.424;25.604;2022-08-19T06:35:58;97816.91;;;29.78;51.56
39157;BME280;24889;42.424;25.604;2022-08-19T06:38:24;97817.94;;;29.98;52.06
39157;BME280;24889;42.424;25.604;2022-08-19T06:40:49;97816.34;;;29.97;50.79
39157;BME280;24889;42.424;25.604;2022-08-19T06:43:15;97816.19;;;29.44;53.71
39157;BME280;24889;42.424;25.604;2022-08-19T06:45:40;97817.97;;;29.28;53.90
39157;BME280;24889;42.424;25.604;2022-08-19T06:48:06;97821.03;;;29.14;55.62
39157;BME280;24889;42.424;25.604;2022-08-19T06:50:32;97825.22;;;28.78;55.91
39157;BME280;24889;42.424;25.604;2022-08-19T06:52:57;97818.13;;;28.77;56.75
39157;BME280;24889;42.424;25.604;2022-08-19T06:55:22;97818.56;;;29.46;54.14
39157;BME280;24889;42.424;25.604;2022-08-19T06:57:48;97817.94;;;29.98;51.67
39157;BME280;24889;42.424;25.604;2022-08-19T07:00:18;97822.28;;;30.11;51.32
39157;BME280;24889;42.424;25.604;2022-08-19T07:02:43;97824.59;;;30.09;51.92
39157;BME280;24889;42.424;25.604;2022-08-19T07:05:09;97823.19;;;30.15;51.06
39157;BME280;24889;42.424;25.604;2022-08-19T07:07:34;97821.47;;;30.88;48.63
39157;BME280;24889;42.424;25.604;2022-08-19T07:10:00;97819.09;;;30.74;49.48
39157;BME280;24889;42.424;25.604;2022-08-19T07:12:26;97818.91;;;30.54;50.07
39157;BME280;24889;42.424;25.604;2022-08-19T07:14:52;97816.38;;;30.49;49.80
39157;BME280;24889;42.424;25.604;2022-08-19T07:17:17;97819.88;;;30.22;50.89
39157;BME280;24889;42.424;25.604;2022-08-19T07:19:43;97818.88;;;30.95;48.95
39157;BME280;24889;42.424;25.604;2022-08-19T07:22:09;97811.06;;;31.41;47.09
39157;BME280;24889;42.424;25.604;2022-08-19T07:24:35;97815.78;;;31.40;47.59
39157;BME280;24889;42.424;25.604;2022-08-19T07:27:01;97816.13;;;31.39;47.28
39157;BME280;24889;42.424;25.604;2022-08-19T07:29:28;97818.28;;;31.77;45.45
39157;BME280;24889;42.424;25.604;2022-08-19T07:31:54;97815.75;;;32.39;43.66
39157;BME280;24889;42.424;25.604;2022-08-19T07:34:21;97821.97;;;32.32;44.73
39157;BME280;24889;42.424;25.604;2022-08-19T07:36:46;97824.03;;;31.24;45.82
39157;BME280;24889;42.424;25.604;2022-08-19T07:39:29;97820.75;;;30.50;47.12
39157;BME280;24889;42.424;25.604;2022-08-19T07:41:55;97819.00;;;30.58;47.00
39157;BME280;24889;42.424;25.604;2022-08-19T07:44:20;97812.50;;;31.07;47.97
39157;BME280;24889;42.424;25.604;2022-08-19T07:46:47;97815.00;;;31.71;45.12
39157;BME280;24889;42.424;25.604;2022-08-19T07:49:14;97815.34;;;31.54;46.92
39157;BME280;24889;42.424;25.604;2022-08-19T07:51:49;97816.16;;;31.11;45.44
39157;BME280;24889;42.424;25.604;2022-08-19T07:54:15;97809.38;;;31.08;45.92
39157;BME280;24889;42.424;25.604;2022-08-19T07:56:40;97806.41;;;32.28;44.82
39157;BME280;24889;42.424;25.604;2022-08-19T07:59:05;97799.06;;;33.09;41.91
39157;BME280;24889;42.424;25.604;2022-08-19T08:01:31;97801.28;;;33.92;39.61
39157;BME280;24889;42.424;25.604;2022-08-19T08:03:57;97806.97;;;33.99;39.55
39157;BME280;24889;42.424;25.604;2022-08-19T08:06:41;97806.34;;;34.70;38.06
39157;BME280;24889;42.424;25.604;2022-08-19T08:09:27;97798.00;;;35.00;36.33
39157;BME280;24889;42.424;25.604;2022-08-19T08:11:57;97800.69;;;34.62;37.37
39157;BME280;24889;42.424;25.604;2022-08-19T08:14:25;97798.47;;;33.65;37.77
39157;BME280;24889;42.424;25.604;2022-08-19T08:16:50;97799.25;;;33.43;38.78
39157;BME280;24889;42.424;25.604;2022-08-19T08:19:17;97795.88;;;33.99;39.07
39157;BME280;24889;42.424;25.604;2022-08-19T08:21:43;97800.56;;;34.82;36.31
39157;BME280;24889;42.424;25.604;2022-08-19T08:24:09;97796.16;;;33.02;38.99
39157;BME280;24889;42.424;25.604;2022-08-19T08:26:34;97795.84;;;32.68;40.37
39157;BME280;24889;42.424;25.604;2022-08-19T08:29:00;97784.88;;;32.17;41.04
39157;BME280;24889;42.424;25.604;2022-08-19T08:31:26;97789.22;;;32.73;40.44
39157;BME280;24889;42.424;25.604;2022-08-19T08:33:51;97791.88;;;33.28;39.12
39157;BME280;24889;42.424;25.604;2022-08-19T08:36:17;97790.94;;;34.46;37.17
39157;BME280;24889;42.424;25.604;2022-08-19T08:38:42;97792.88;;;35.43;35.96
39157;BME280;24889;42.424;25.604;2022-08-19T08:43:39;97782.97;;;35.93;33.60
39157;BME280;24889;42.424;25.604;2022-08-19T08:51:48;97786.31;;;34.87;34.92
39157;BME280;24889;42.424;25.604;2022-08-19T08:54:18;97782.78;;;34.56;35.48
39157;BME280;24889;42.424;25.604;2022-08-19T08:56:44;97782.09;;;33.14;37.13
39157;BME280;24889;42.424;25.604;2022-08-19T08:59:24;97778.94;;;33.58;37.60
39157;BME280;24889;42.424;25.604;2022-08-19T09:01:52;97779.47;;;33.22;37.69
39157;BME280;24889;42.424;25.604;2022-08-19T09:04:19;97776.66;;;33.64;36.78
39157;BME280;24889;42.424;25.604;2022-08-19T09:09:43;97773.13;;;33.67;37.74
39157;BME280;24889;42.424;25.604;2022-08-19T09:12:14;97776.94;;;34.65;35.69
39157;BME280;24889;42.424;25.604;2022-08-19T09:14:50;97763.09;;;35.43;35.47
39157;BME280;24889;42.424;25.604;2022-08-19T09:17:18;97761.88;;;35.44;32.36
39157;BME280;24889;42.424;25.604;2022-08-19T09:19:51;97763.13;;;35.98;32.12
39157;BME280;24889;42.424;25.604;2022-08-19T09:22:18;97749.19;;;36.71;28.56
39157;BME280;24889;42.424;25.604;2022-08-19T09:24:46;97759.63;;;35.57;29.98
39157;BME280;24889;42.424;25.604;2022-08-19T09:27:11;97752.25;;;35.34;30.66
39157;BME280;24889;42.424;25.604;2022-08-19T09:29:37;97755.41;;;35.74;30.56
39157;BME280;24889;42.424;25.604;2022-08-19T09:32:02;97753.97;;;35.98;28.37
39157;BME280;24889;42.424;25.604;2022-08-19T09:34:27;97752.53;;;36.18;28.31
39157;BME280;24889;42.424;25.604;2022-08-19T09:36:54;97749.72;;;36.15;30.22
39157;BME280;24889;42.424;25.604;2022-08-19T09:39:23;97767.47;;;35.96;29.29
39157;BME280;24889;42.424;25.604;2022-08-19T09:41:48;97740.59;;;36.21;29.13
39157;BME280;24889;42.424;25.604;2022-08-19T09:44:14;97743.63;;;36.82;28.54
39157;BME280;24889;42.424;25.604;2022-08-19T09:46:41;97750.44;;;36.92;27.49
39157;BME280;24889;42.424;25.604;2022-08-19T09:49:06;97736.66;;;36.33;28.75
39157;BME280;24889;42.424;25.604;2022-08-19T09:51:32;97740.91;;;36.05;28.64
39157;BME280;24889;42.424;25.604;2022-08-19T09:54:01;97737.00;;;36.17;28.75
39157;BME280;24889;42.424;25.604;2022-08-19T09:56:27;97737.97;;;36.46;28.15
39157;BME280;24889;42.424;25.604;2022-08-19T09:58:53;97737.44;;;36.26;28.82
39157;BME280;24889;42.424;25.604;2022-08-19T10:01:23;97739.44;;;36.33;28.56
39157;BME280;24889;42.424;25.604;2022-08-19T10:03:53;97732.09;;;35.96;27.45
39157;BME280;24889;42.424;25.604;2022-08-19T10:06:19;97731.28;;;35.92;28.09
39157;BME280;24889;42.424;25.604;2022-08-19T10:08:45;97729.81;;;36.13;27.94
39157;BME280;24889;42.424;25.604;2022-08-19T10:11:11;97733.22;;;35.88;28.52
39157;BME280;24889;42.424;25.604;2022-08-19T10:13:37;97736.75;;;35.78;29.26
39157;BME280;24889;42.424;25.604;2022-08-19T10:16:07;97736.00;;;35.37;30.00
39157;BME280;24889;42.424;25.604;2022-08-19T10:18:33;97736.59;;;35.12;30.36
39157;BME280;24889;42.424;25.604;2022-08-19T10:21:19;97734.03;;;35.89;29.10
39157;BME280;24889;42.424;25.604;2022-08-19T10:23:46;97730.59;;;36.10;28.34
39157;BME280;24889;42.424;25.604;2022-08-19T10:26:14;97717.81;;;36.01;28.74
39157;BME280;24889;42.424;25.604;2022-08-19T10:28:39;97726.25;;;36.16;29.34
39157;BME280;24889;42.424;25.604;2022-08-19T10:31:09;97721.19;;;36.43;27.95
39157;BME280;24889;42.424;25.604;2022-08-19T10:33:35;97728.78;;;36.46;28.19
39157;BME280;24889;42.424;25.604;2022-08-19T10:36:02;97726.06;;;36.57;27.68
39157;BME280;24889;42.424;25.604;2022-08-19T10:38:28;97719.56;;;36.35;27.68
39157;BME280;24889;42.424;25.604;2022-08-19T10:40:54;97712.06;;;35.25;29.24
39157;BME280;24889;42.424;25.604;2022-08-19T10:43:19;97723.56;;;35.20;29.36
39157;BME280;24889;42.424;25.604;2022-08-19T10:45:48;97717.56;;;35.18;29.68
39157;BME280;24889;42.424;25.604;2022-08-19T10:48:13;97711.31;;;35.83;29.01
39157;BME280;24889;42.424;25.604;2022-08-19T10:50:39;97716.13;;;35.90;27.94
39157;BME280;24889;42.424;25.604;2022-08-19T10:53:32;97713.09;;;36.13;28.11
39157;BME280;24889;42.424;25.604;2022-08-19T10:55:58;97705.09;;;36.00;28.96
39157;BME280;24889;42.424;25.604;2022-08-19T10:58:41;97699.19;;;36.16;28.69
39157;BME280;24889;42.424;25.604;2022-08-19T11:01:07;97699.59;;;36.15;28.42
39157;BME280;24889;42.424;25.604;2022-08-19T11:03:32;97700.41;;;36.19;28.96
39157;BME280;24889;42.424;25.604;2022-08-19T11:06:02;97689.63;;;36.14;28.22
39157;BME280;24889;42.424;25.604;2022-08-19T11:08:28;97695.88;;;35.93;28.25
39157;BME280;24889;42.424;25.604;2022-08-19T11:10:53;97700.16;;;35.79;28.51
39157;BME280;24889;42.424;25.604;2022-08-19T11:13:22;97696.38;;;36.05;28.16
39157;BME280;24889;42.424;25.604;2022-08-19T11:15:55;97693.19;;;36.03;27.70
39157;BME280;24889;42.424;25.604;2022-08-19T11:18:21;97699.59;;;36.11;28.21
39157;BME280;24889;42.424;25.604;2022-08-19T11:20:46;97675.97;;;35.91;28.11
39157;BME280;24889;42.424;25.604;2022-08-19T11:23:11;97681.66;;;36.09;27.52
39157;BME280;24889;42.424;25.604;2022-08-19T11:25:38;97682.09;;;36.18;27.46
39157;BME280;24889;42.424;25.604;2022-08-19T11:28:03;97671.31;;;36.09;27.98
39157;BME280;24889;42.424;25.604;2022-08-19T11:30:29;97675.06;;;35.17;28.01
39157;BME280;24889;42.424;25.604;2022-08-19T11:32:55;97679.63;;;34.99;28.18
39157;BME280;24889;42.424;25.604;2022-08-19T11:35:20;97676.31;;;35.23;28.29
39157;BME280;24889;42.424;25.604;2022-08-19T11:37:48;97674.91;;;35.47;27.13
39157;BME280;24889;42.424;25.604;2022-08-19T11:40:13;97677.16;;;35.31;26.92
39157;BME280;24889;42.424;25.604;2022-08-19T11:42:39;97674.97;;;35.51;27.40
39157;BME280;24889;42.424;25.604;2022-08-19T11:45:23;97672.13;;;34.62;28.18
39157;BME280;24889;42.424;25.604;2022-08-19T11:47:48;97671.69;;;34.56;28.14
39157;BME280;24889;42.424;25.604;2022-08-19T11:50:14;97666.88;;;34.91;28.87
39157;BME280;24889;42.424;25.604;2022-08-19T11:52:40;97668.28;;;35.15;27.78
39157;BME280;24889;42.424;25.604;2022-08-19T11:55:05;97663.69;;;34.92;28.62
39157;BME280;24889;42.424;25.604;2022-08-19T11:57:31;97658.88;;;34.89;28.31
39157;BME280;24889;42.424;25.604;2022-08-19T11:59:56;97668.16;;;35.00;28.42
39157;BME280;24889;42.424;25.604;2022-08-19T12:02:21;97666.38;;;35.26;28.24
39157;BME280;24889;42.424;25.604;2022-08-19T12:04:48;97672.09;;;35.44;27.76
39157;BME280;24889;42.424;25.604;2022-08-19T12:07:13;97667.09;;;35.16;28.43
39157;BME280;24889;42.424;25.604;2022-08-19T12:09:39;97671.69;;;34.97;28.22
39157;BME280;24889;42.424;25.604;2022-08-19T12:12:04;97674.63;;;34.71;28.71
39157;BME280;24889;42.424;25.604;2022-08-19T12:14:30;97670.06;;;34.96;28.28
39157;BME280;24889;42.424;25.604;2022-08-19T12:16:57;97662.56;;;34.97;28.45
39157;BME280;24889;42.424;25.604;2022-08-19T12:19:22;97666.09;;;34.94;28.22
39157;BME280;24889;42.424;25.604;2022-08-19T12:21:49;97663.03;;;35.02;28.33
39157;BME280;24889;42.424;25.604;2022-08-19T12:24:15;97663.13;;;35.13;27.94
39157;BME280;24889;42.424;25.604;2022-08-19T12:26:40;97659.50;;;35.09;27.50
39157;BME280;24889;42.424;25.604;2022-08-19T12:29:06;97661.47;;;35.05;27.82
39157;BME280;24889;42.424;25.604;2022-08-19T12:31:33;97650.13;;;35.28;28.22
39157;BME280;24889;42.424;25.604;2022-08-19T12:33:58;97643.16;;;35.52;27.58
39157;BME280;24889;42.424;25.604;2022-08-19T12:36:27;97643.59;;;35.61;26.24
39157;BME280;24889;42.424;25.604;2022-08-19T12:38:52;97651.59;;;35.63;27.10
39157;BME280;24889;42.424;25.604;2022-08-19T12:41:18;97656.19;;;35.44;27.81
39157;BME280;24889;42.424;25.604;2022-08-19T12:43:44;97648.00;;;34.70;28.58
39157;BME280;24889;42.424;25.604;2022-08-19T12:46:10;97642.88;;;34.72;28.55
39157;BME280;24889;42.424;25.604;2022-08-19T12:48:36;97650.84;;;34.77;28.43
39157;BME280;24889;42.424;25.604;2022-08-19T12:51:09;97644.00;;;35.04;28.33
39157;BME280;24889;42.424;25.604;2022-08-19T12:53:35;97658.34;;;35.14;27.88
39157;BME280;24889;42.424;25.604;2022-08-19T12:56:00;97656.50;;;34.88;28.12
39157;BME280;24889;42.424;25.604;2022-08-19T12:58:26;97652.00;;;35.13;28.23
39157;BME280;24889;42.424;25.604;2022-08-19T13:00:52;97652.00;;;35.13;28.75